Hamburg, New York
Current Conditions -  °F | °C
As of 11:11 AM on Monday 26 Jan 2015 (Local Time) from KBUF Reporting Station
Light Snow Light Snow  
Wind Chill: -2°   Ceiling: 2500
Heat Index: 14°   Visibility: 1.5mi
Dew Point:   Wind: 16mph
Humidity: 74%   Direction: 60°ENE
Pressure: 29.93"   Gusts: NA
Location:  42.72°N, 78.83°W
Report Text: KBUF 261611Z 06014KT 1 1/2SM -SN BKN025 BKN034 OVC045 M10/M14 A2993 RMK AO2 VIS NE-E 2 1/2 DRSN P0000 T11001139
Loading
Personal Weather Stations






























Interactive Weather Map New forecast layout! Learn more

10-Day Weather Forecast

Advertisements
Track Severe Weather on mobile